Time;durP1;ratioP1;P1;durP2;ratioP2;P2;SDS_P1;SDS_P2;PMS_P1;PMS_P2;Temp;Humidity;BMP_temperature;BMP_pressure;BME280_temperature;BME280_humidity;BME280_pressure;Samples;Min_cycle;Max_cycle;Signal;HPM_P1;HPM_P2
2023/12/08 00:02:06;;;;;;;10.50;5.57;;;;;;;10.65;45.40;100468.75;5053356;28;20505;-60
2023/12/08 00:04:31;;;;;;;13.10;5.35;;;;;;;10.68;45.72;100492.59;5054587;28;20052;-60
2023/12/08 00:06:57;;;;;;;15.57;5.90;;;;;;;10.66;45.76;100505.28;5020437;28;20366;-60
2023/12/08 00:09:22;;;;;;;10.57;5.13;;;;;;;10.69;45.19;100501.47;5020281;28;20037;-60
2023/12/08 00:11:48;;;;;;;9.63;5.07;;;;;;;10.71;45.25;100494.97;5054380;28;20055;-60
2023/12/08 00:14:14;;;;;;;18.70;6.45;;;;;;;10.72;44.87;100491.31;5054169;28;20041;-60
2023/12/08 00:16:39;;;;;;;14.05;5.88;;;;;;;10.74;45.27;100486.69;5052712;28;20388;-60
2023/12/08 00:19:04;;;;;;;15.48;5.90;;;;;;;10.76;45.09;100489.19;5034566;28;20040;-60
2023/12/08 00:21:30;;;;;;;16.35;6.60;;;;;;;10.78;45.83;100492.56;5052220;28;20380;-60
2023/12/08 00:23:55;;;;;;;9.65;5.30;;;;;;;10.81;45.24;100492.31;5017932;28;20089;-60
2023/12/08 00:26:20;;;;;;;16.33;6.28;;;;;;;10.83;45.35;100488.50;5051562;28;20116;-60
2023/12/08 00:28:46;;;;;;;17.67;6.15;;;;;;;10.87;45.39;100489.94;5043437;28;20087;-60
2023/12/08 00:31:12;;;;;;;11.68;5.55;;;;;;;10.87;44.88;100495.28;5052519;28;20393;-60
2023/12/08 00:33:38;;;;;;;10.55;5.90;;;;;;;10.85;45.54;100486.56;5055956;28;20481;-60
2023/12/08 00:36:13;;;;;;;11.27;5.18;;;;;;;10.85;44.88;100489.22;5072044;28;20052;-60
2023/12/08 00:38:40;;;;;;;10.38;4.95;;;;;;;10.86;44.98;100480.19;5054166;28;20028;-60
2023/12/08 00:41:05;;;;;;;11.02;5.43;;;;;;;10.88;45.79;100480.06;5054331;28;20047;-60
2023/12/08 00:43:30;;;;;;;14.30;5.35;;;;;;;10.86;45.63;100474.00;5072224;28;20028;-60
2023/12/08 00:45:58;;;;;;;10.45;5.15;;;;;;;10.86;45.55;100476.69;5037859;28;20170;-60
2023/12/08 00:48:24;;;;;;;9.48;5.25;;;;;;;10.88;45.57;100466.66;5034751;28;20036;-60
2023/12/08 00:50:51;;;;;;;13.55;5.93;;;;;;;10.88;45.04;100463.97;5054650;28;20065;-60
2023/12/08 00:53:16;;;;;;;12.80;5.57;;;;;;;10.89;44.97;100463.81;5071883;28;20097;-60
2023/12/08 00:55:44;;;;;;;12.18;5.63;;;;;;;10.90;45.68;100457.50;5057457;28;20052;-60
2023/12/08 00:58:09;;;;;;;12.40;5.85;;;;;;;10.90;45.40;100457.50;5041066;28;20043;-60
2023/12/08 01:00:36;;;;;;;10.30;5.03;;;;;;;10.90;45.47;100452.13;5057690;28;20408;-60
2023/12/08 01:03:01;;;;;;;14.18;5.57;;;;;;;10.89;45.70;100450.44;5057370;28;20097;-60
2023/12/08 01:05:27;;;;;;;12.00;5.18;;;;;;;10.90;45.77;100440.56;5057569;28;20548;-59
2023/12/08 01:07:52;;;;;;;9.52;5.47;;;;;;;10.86;45.42;100437.31;5075544;28;20091;-59
2023/12/08 01:10:17;;;;;;;15.57;4.70;;;;;;;10.79;46.36;100420.13;5057104;28;20532;-59
2023/12/08 01:12:43;;;;;;;15.70;6.10;;;;;;;10.80;45.70;100429.00;5057414;28;20024;-59
2023/12/08 01:15:09;;;;;;;13.23;5.15;;;;;;;10.76;45.90;100423.09;5040689;28;20415;-60
2023/12/08 01:17:34;;;;;;;13.35;5.75;;;;;;;10.73;45.88;100412.66;5057451;28;20037;-59
2023/12/08 01:20:00;;;;;;;18.50;5.32;;;;;;;10.73;46.12;100407.28;5057249;28;20036;-59
2023/12/08 01:22:27;;;;;;;20.83;6.72;;;;;;;10.74;46.32;100405.47;5056561;28;20033;-59
2023/12/08 01:24:53;;;;;;;17.80;6.55;;;;;;;10.72;46.32;100400.22;5075233;28;20044;-59
2023/12/08 01:27:18;;;;;;;17.92;5.85;;;;;;;10.74;46.24;100397.44;5057934;28;20033;-59
2023/12/08 01:29:44;;;;;;;14.35;5.97;;;;;;;10.72;45.78;100381.47;5041305;28;20048;-59
2023/12/08 01:32:09;;;;;;;11.88;5.38;;;;;;;10.75;45.92;100383.88;5040952;28;20117;-59
2023/12/08 01:34:34;;;;;;;12.70;6.05;;;;;;;10.75;45.75;100383.88;5040873;28;20041;-59
2023/12/08 01:37:00;;;;;;;13.75;5.30;;;;;;;10.76;46.33;100379.38;5055830;28;20492;-59
2023/12/08 01:39:25;;;;;;;15.85;6.45;;;;;;;10.77;46.57;100381.06;5057112;28;20441;-65
2023/12/08 01:41:51;;;;;;;11.50;5.53;;;;;;;10.80;45.90;100384.31;5040144;28;20045;-64
2023/12/08 01:44:16;;;;;;;11.57;5.40;;;;;;;10.80;46.17;100387.00;5057181;28;20116;-64
2023/12/08 01:46:42;;;;;;;10.23;5.40;;;;;;;10.79;45.92;100384.44;5040235;28;20553;-65
2023/12/08 01:49:08;;;;;;;9.57;5.13;;;;;;;10.81;46.50;100383.31;5039840;28;20045;-65
2023/12/08 01:51:33;;;;;;;17.38;5.25;;;;;;;10.79;46.61;100392.47;5040046;28;20497;-65
2023/12/08 01:53:59;;;;;;;9.80;4.47;;;;;;;10.75;46.08;100394.59;5056555;28;20037;-66
2023/12/08 01:56:26;;;;;;;12.40;5.47;;;;;;;10.73;46.12;100395.72;5074779;28;20460;-67
2023/12/08 01:58:52;;;;;;;12.98;6.07;;;;;;;10.69;46.30;100386.28;5074689;28;20098;-69
2023/12/08 02:01:18;;;;;;;18.10;6.43;;;;;;;10.65;46.98;100375.00;5039751;28;20515;-69
2023/12/08 02:03:46;;;;;;;10.90;5.00;;;;;;;10.57;46.33;100358.81;5039995;28;20039;-70
2023/12/08 02:06:11;;;;;;;12.63;5.78;;;;;;;10.54;46.75;100356.41;5055938;28;20051;-71
2023/12/08 02:08:37;;;;;;;10.07;5.28;;;;;;;10.49;47.15;100364.00;5056482;28;20033;-69
2023/12/08 02:11:03;;;;;;;14.50;5.50;;;;;;;10.47;46.94;100349.91;5074777;28;20033;-70
2023/12/08 02:13:28;;;;;;;10.88;4.88;;;;;;;10.44;47.25;100348.34;5074915;28;20035;-70
2023/12/08 02:16:01;;;;;;;16.00;5.68;;;;;;;10.39;47.11;100339.03;5056687;28;20116;-70
2023/12/08 02:18:27;;;;;;;13.23;5.97;;;;;;;10.35;46.87;100326.94;5056383;28;20032;-70
2023/12/08 02:20:52;;;;;;;14.30;6.40;;;;;;;10.29;47.23;100327.50;5039441;28;20029;-70
2023/12/08 02:23:18;;;;;;;10.18;5.20;;;;;;;10.24;47.30;100319.03;5056193;28;20062;-71
2023/12/08 02:25:44;;;;;;;11.82;5.82;;;;;;;10.21;47.12;100327.34;5073908;28;20389;-71
2023/12/08 02:28:10;;;;;;;9.55;4.90;;;;;;;10.21;47.35;100316.66;5056272;28;20037;-71
2023/12/08 02:30:35;;;;;;;9.98;5.65;;;;;;;10.21;47.58;100308.63;5056198;28;20565;-69
2023/12/08 02:33:17;;;;;;;11.40;5.70;;;;;;;10.19;47.76;100299.91;5056309;28;20651;-71
2023/12/08 02:35:45;;;;;;;11.45;5.93;;;;;;;10.18;47.32;100300.88;5073934;28;20120;-72
2023/12/08 02:38:13;;;;;;;12.90;5.22;;;;;;;10.18;47.38;100311.56;5056081;28;20486;-72
2023/12/08 02:40:39;;;;;;;8.65;4.82;;;;;;;10.15;47.59;100298.47;5055974;28;20025;-71
2023/12/08 02:43:04;;;;;;;10.25;5.00;;;;;;;10.13;47.45;100303.13;5039171;28;20377;-73
2023/12/08 02:45:31;;;;;;;9.90;4.35;;;;;;;10.13;47.92;100308.47;5055796;28;20090;-75
2023/12/08 02:47:57;;;;;;;10.10;4.10;;;;;;;10.10;48.28;100306.03;5056508;28;20114;-60
2023/12/08 02:50:22;;;;;;;8.75;4.47;;;;;;;10.12;47.92;100320.13;5055455;28;20491;-60
2023/12/08 02:52:47;;;;;;;9.70;4.32;;;;;;;10.07;48.65;100312.50;5055525;28;20399;-60
2023/12/08 02:55:13;;;;;;;12.15;5.18;;;;;;;10.09;48.53;100309.69;5055348;28;20136;-60
2023/12/08 02:57:38;;;;;;;12.25;4.45;;;;;;;10.07;48.38;100327.72;5038689;28;20514;-60
2023/12/08 03:00:04;;;;;;;10.02;5.00;;;;;;;10.05;48.49;100324.34;5073149;28;20035;-60
2023/12/08 03:02:29;;;;;;;10.82;4.50;;;;;;;10.03;48.62;100323.63;5055050;28;20024;-60
2023/12/08 03:04:55;;;;;;;12.38;4.40;;;;;;;10.05;48.65;100337.72;5038644;28;20488;-60
2023/12/08 03:07:20;;;;;;;10.85;3.70;;;;;;;10.03;48.59;100340.53;5073285;28;20055;-61
2023/12/08 03:09:46;;;;;;;11.68;4.72;;;;;;;10.02;48.99;100344.19;5055083;28;20059;-61
2023/12/08 03:12:11;;;;;;;9.50;4.35;;;;;;;10.00;48.68;100334.59;5055266;28;20028;-61
2023/12/08 03:14:36;;;;;;;7.50;4.13;;;;;;;10.02;48.92;100351.38;5038779;28;20431;-60
2023/12/08 03:17:02;;;;;;;9.02;4.05;;;;;;;9.99;48.13;100336.44;5038335;28;20024;-60
2023/12/08 03:19:27;;;;;;;10.85;4.47;;;;;;;10.03;48.73;100342.34;5054977;28;20499;-61
2023/12/08 03:21:52;;;;;;;12.45;5.03;;;;;;;10.06;49.03;100350.09;5054992;28;20033;-60
2023/12/08 03:24:18;;;;;;;9.73;4.80;;;;;;;10.07;49.05;100343.78;5072876;28;20036;-60
2023/12/08 03:26:43;;;;;;;10.20;4.63;;;;;;;10.06;48.98;100329.53;5054936;28;20038;-60
2023/12/08 03:29:09;;;;;;;8.68;5.07;;;;;;;10.12;49.48;100341.53;5072598;28;20086;-60
2023/12/08 03:31:34;;;;;;;8.65;4.60;;;;;;;10.14;49.33;100344.94;5073090;28;20033;-60
2023/12/08 03:34:00;;;;;;;12.13;4.75;;;;;;;10.17;49.75;100355.38;5054920;28;20039;-60
2023/12/08 03:36:26;;;;;;;8.10;4.28;;;;;;;10.20;49.31;100352.41;5054952;28;20032;-61
2023/12/08 03:38:51;;;;;;;12.38;4.93;;;;;;;10.19;48.91;100348.88;5073105;28;20441;-61
2023/12/08 03:41:16;;;;;;;11.80;4.55;;;;;;;10.23;48.87;100354.81;5055101;28;20033;-61
2023/12/08 03:43:42;;;;;;;11.57;4.80;;;;;;;10.24;49.30;100356.53;5072104;28;20108;-60
2023/12/08 03:46:08;;;;;;;7.72;4.03;;;;;;;10.26;49.66;100350.03;5054964;28;20032;-60
2023/12/08 03:48:37;;;;;;;10.88;4.50;;;;;;;10.27;49.33;100346.34;5038018;28;20072;-60
2023/12/08 03:51:05;;;;;;;12.70;4.72;;;;;;;10.28;49.34;100345.38;5073199;28;20029;-61
2023/12/08 03:53:32;;;;;;;9.80;4.50;;;;;;;10.28;49.88;100341.84;5055290;28;20035;-60
2023/12/08 03:55:57;;;;;;;9.35;4.32;;;;;;;10.30;50.00;100343.41;5050134;28;20407;-61
2023/12/08 03:58:22;;;;;;;8.35;4.47;;;;;;;10.29;50.31;100338.22;5073030;28;20091;-60
2023/12/08 04:00:48;;;;;;;8.30;4.53;;;;;;;10.33;49.71;100339.63;5072883;28;20036;-60
2023/12/08 04:03:13;;;;;;;12.57;5.75;;;;;;;10.34;49.92;100341.31;5054865;28;20465;-61
2023/12/08 04:05:38;;;;;;;7.68;4.28;;;;;;;10.35;50.10;100337.66;5072557;28;20041;-61
2023/12/08 04:08:04;;;;;;;8.55;4.32;;;;;;;10.38;49.72;100337.38;5054940;28;20548;-61
2023/12/08 04:10:31;;;;;;;8.13;4.22;;;;;;;10.37;50.02;100331.16;5054781;28;20035;-60
2023/12/08 04:12:56;;;;;;;11.23;4.57;;;;;;;10.38;49.59;100326.66;5056348;28;20036;-60
2023/12/08 04:15:22;;;;;;;7.60;3.92;;;;;;;10.40;49.95;100330.91;5074239;28;20435;-60
2023/12/08 04:17:49;;;;;;;7.35;3.78;;;;;;;10.41;49.98;100331.75;5057098;28;20044;-61
2023/12/08 04:20:17;;;;;;;5.63;3.65;;;;;;;10.44;50.46;100334.13;5074676;28;20036;-61
2023/12/08 04:22:43;;;;;;;9.80;3.75;;;;;;;10.47;49.62;100332.00;5040358;28;20037;-60
2023/12/08 04:25:11;;;;;;;11.07;4.50;;;;;;;10.50;50.16;100336.22;5040072;28;20035;-60
2023/12/08 04:27:37;;;;;;;11.18;4.90;;;;;;;10.49;50.19;100330.06;5074950;28;20102;-61
2023/12/08 04:30:03;;;;;;;6.72;3.55;;;;;;;10.50;50.39;100326.38;5076774;28;20443;-62
2023/12/08 04:32:28;;;;;;;6.80;3.80;;;;;;;10.53;50.61;100338.63;5058121;28;20028;-60
2023/12/08 04:34:53;;;;;;;8.63;4.32;;;;;;;10.57;50.25;100332.03;5075763;28;20132;-60
2023/12/08 04:37:19;;;;;;;8.30;3.83;;;;;;;10.57;50.44;100326.66;5075934;28;20056;-61
2023/12/08 04:39:44;;;;;;;12.10;4.22;;;;;;;10.62;50.81;100327.06;5058094;28;20024;-60
2023/12/08 04:42:10;;;;;;;13.68;4.03;;;;;;;10.64;50.79;100322.41;5075745;28;20052;-60
2023/12/08 04:44:35;;;;;;;8.00;3.78;;;;;;;10.64;50.93;100317.06;5057903;28;20043;-61
2023/12/08 04:47:00;;;;;;;9.38;4.50;;;;;;;10.67;50.29;100319.47;5057487;28;20064;-61
2023/12/08 04:49:26;;;;;;;8.05;3.53;;;;;;;10.66;51.02;100328.50;5075397;28;20063;-60
2023/12/08 04:51:51;;;;;;;4.80;2.95;;;;;;;10.67;51.12;100324.81;5075896;28;20026;-60
2023/12/08 04:54:17;;;;;;;8.23;3.35;;;;;;;10.67;50.92;100318.59;5052444;28;20498;-61
2023/12/08 04:56:42;;;;;;;9.43;3.60;;;;;;;10.70;50.08;100316.50;5057985;28;20044;-60
2023/12/08 04:59:08;;;;;;;5.50;3.13;;;;;;;10.70;51.24;100319.16;5057633;28;20056;-60
2023/12/08 05:01:35;;;;;;;7.13;3.67;;;;;;;10.69;50.64;100317.47;5057577;28;20097;-60
2023/12/08 05:04:01;;;;;;;6.03;3.22;;;;;;;10.71;50.49;100323.56;5057839;28;20021;-60
2023/12/08 05:06:26;;;;;;;6.40;3.72;;;;;;;10.73;50.55;100328.75;5075199;28;20024;-60
2023/12/08 05:08:52;;;;;;;7.40;3.42;;;;;;;10.76;51.31;100332.00;5057782;28;20443;-60
2023/12/08 05:11:18;;;;;;;6.47;3.60;;;;;;;10.78;50.69;100335.38;5057344;28;20048;-60
2023/12/08 05:13:43;;;;;;;14.75;4.68;;;;;;;10.80;51.21;100332.56;5038224;28;20435;-60
2023/12/08 05:16:12;;;;;;;11.45;4.07;;;;;;;10.84;51.37;100340.16;5037846;28;20063;-60
2023/12/08 05:18:37;;;;;;;7.90;4.22;;;;;;;10.81;50.88;100335.09;5020807;28;20029;-60
2023/12/08 05:21:03;;;;;;;9.15;3.85;;;;;;;10.83;50.54;100333.09;5037373;28;20040;-60
2023/12/08 05:23:29;;;;;;;11.05;4.88;;;;;;;10.85;50.94;100331.16;5020567;28;20029;-60
2023/12/08 05:25:54;;;;;;;6.35;4.00;;;;;;;10.86;50.98;100327.47;5037407;28;20048;-60
2023/12/08 05:28:19;;;;;;;6.38;3.65;;;;;;;10.91;51.68;100319.88;5037398;28;20027;-60
2023/12/08 05:30:45;;;;;;;8.65;4.78;;;;;;;10.94;51.65;100319.56;5054863;28;20029;-60
2023/12/08 05:33:11;;;;;;;7.32;3.75;;;;;;;10.91;51.75;100319.03;5054968;28;20075;-60
2023/12/08 05:35:37;;;;;;;9.30;5.25;;;;;;;10.94;51.30;100322.22;5036846;28;20041;-60
2023/12/08 05:38:03;;;;;;;11.15;4.75;;;;;;;10.97;51.56;100329.97;5037125;28;20033;-60
2023/12/08 05:40:28;;;;;;;7.53;4.45;;;;;;;11.00;51.14;100323.50;5037063;28;20043;-60
2023/12/08 05:42:55;;;;;;;10.15;4.80;;;;;;;11.00;51.99;100335.06;5020271;28;20060;-60
2023/12/08 05:45:20;;;;;;;7.18;4.15;;;;;;;11.03;51.79;100337.44;5036797;28;20036;-60
2023/12/08 05:47:45;;;;;;;10.15;5.22;;;;;;;11.08;51.75;100332.50;5056117;28;20102;-60
2023/12/08 05:50:11;;;;;;;8.27;4.35;;;;;;;11.11;51.43;100336.72;5056722;28;20503;-59
2023/12/08 05:52:36;;;;;;;10.70;5.20;;;;;;;11.15;51.72;100337.28;5040076;28;20115;-60
2023/12/08 05:55:02;;;;;;;9.27;4.75;;;;;;;11.15;51.18;100337.28;5056748;28;20040;-60
2023/12/08 05:57:28;;;;;;;9.20;4.18;;;;;;;11.16;51.70;100339.00;5074606;28;20036;-60
2023/12/08 05:59:53;;;;;;;9.02;4.63;;;;;;;11.13;52.02;100333.91;5057100;28;20039;-60
2023/12/08 06:02:19;;;;;;;11.63;4.43;;;;;;;11.10;51.94;100335.91;5057245;28;20036;-59
2023/12/08 06:04:44;;;;;;;9.68;4.22;;;;;;;11.14;51.71;100340.97;5056739;28;20135;-60
2023/12/08 06:07:10;;;;;;;8.73;4.43;;;;;;;11.13;51.30;100340.13;5056951;28;20032;-59
2023/12/08 06:09:36;;;;;;;10.45;5.28;;;;;;;11.16;51.49;100334.47;5057169;28;20033;-60
2023/12/08 06:12:01;;;;;;;8.75;4.00;;;;;;;11.17;51.38;100335.34;5057531;28;20400;-60
2023/12/08 06:14:27;;;;;;;9.82;4.30;;;;;;;11.20;51.86;100343.91;5057136;28;20111;-59
2023/12/08 06:16:52;;;;;;;12.90;4.40;;;;;;;11.23;52.26;100350.81;5056758;28;20032;-59
2023/12/08 06:19:19;;;;;;;7.32;4.07;;;;;;;11.20;51.15;100351.09;5047058;28;20045;-70
2023/12/08 06:21:44;;;;;;;15.18;4.70;;;;;;;11.21;51.77;100344.75;5056620;28;20496;-71
2023/12/08 06:24:09;;;;;;;8.60;3.95;;;;;;;11.18;51.12;100351.25;5056799;28;20143;-70
2023/12/08 06:26:37;;;;;;;7.55;4.95;;;;;;;11.20;51.68;100353.78;5074638;28;20402;-70
2023/12/08 06:29:03;;;;;;;9.35;4.88;;;;;;;11.16;51.44;100344.34;5039905;28;20032;-70
2023/12/08 06:31:28;;;;;;;19.95;5.53;;;;;;;11.22;52.29;100349.13;5040104;28;20032;-70
2023/12/08 06:33:53;;;;;;;6.88;3.92;;;;;;;11.19;52.37;100333.34;5040121;28;20116;-70
2023/12/08 06:36:19;;;;;;;7.82;4.35;;;;;;;11.24;52.40;100344.47;5056558;28;20063;-69
2023/12/08 06:38:44;;;;;;;8.55;4.18;;;;;;;11.28;51.33;100344.03;5056572;28;20032;-70
2023/12/08 06:41:10;;;;;;;9.05;3.92;;;;;;;11.30;51.45;100333.16;5041581;28;20107;-69
2023/12/08 06:43:35;;;;;;;8.60;4.63;;;;;;;11.32;51.48;100341.91;5041687;28;20158;-65
2023/12/08 06:46:01;;;;;;;10.38;4.63;;;;;;;11.33;52.24;100348.97;5076395;28;20120;-65
2023/12/08 06:48:27;;;;;;;10.95;5.38;;;;;;;11.33;51.98;100336.41;5056985;28;20155;-64
2023/12/08 06:50:52;;;;;;;13.13;4.47;;;;;;;11.35;52.27;100344.28;5074640;28;20043;-68
2023/12/08 06:53:17;;;;;;;14.68;5.25;;;;;;;11.34;52.16;100340.75;5056132;28;20472;-71
2023/12/08 06:55:43;;;;;;;8.40;4.78;;;;;;;11.40;51.47;100348.22;5073937;28;20037;-64
2023/12/08 06:58:09;;;;;;;8.00;4.53;;;;;;;11.44;52.37;100343.41;5073733;28;20036;-66
2023/12/08 07:00:34;;;;;;;12.52;5.13;;;;;;;11.51;51.94;100352.56;5039425;28;20028;-69
2023/12/08 07:02:59;;;;;;;13.38;5.40;;;;;;;11.54;51.74;100344.22;5073439;28;20063;-68
2023/12/08 07:05:25;;;;;;;18.05;6.03;;;;;;;11.61;52.19;100351.53;5055501;28;20056;-68
2023/12/08 07:07:51;;;;;;;11.75;5.60;;;;;;;11.64;51.75;100355.78;5073257;28;20036;-68
2023/12/08 07:10:16;;;;;;;11.45;4.60;;;;;;;11.67;52.12;100358.13;5038483;28;20048;-68
2023/12/08 07:12:42;;;;;;;14.23;5.43;;;;;;;11.66;51.30;100349.25;5055127;28;20036;-68
2023/12/08 07:15:10;;;;;;;16.15;5.22;;;;;;;11.65;52.46;100347.56;5073261;28;20046;-68
2023/12/08 07:17:35;;;;;;;11.05;5.45;;;;;;;11.65;51.96;100357.44;5073291;28;20116;-68
2023/12/08 07:20:01;;;;;;;16.60;5.85;;;;;;;11.71;51.46;100362.25;5045614;28;20480;-68
2023/12/08 07:22:26;;;;;;;11.95;5.97;;;;;;;11.74;51.71;100367.31;5055285;28;20043;-68
2023/12/08 07:24:51;;;;;;;9.32;5.60;;;;;;;11.80;51.88;100382.00;5055138;28;20445;-68
2023/12/08 07:27:17;;;;;;;11.52;5.13;;;;;;;11.82;52.47;100382.69;5073022;28;20041;-68
2023/12/08 07:29:42;;;;;;;13.73;5.93;;;;;;;11.89;52.58;100391.84;5037986;28;20064;-58
2023/12/08 07:32:07;;;;;;;10.02;4.63;;;;;;;11.90;51.87;100385.47;5072927;28;20492;-59
2023/12/08 07:34:33;;;;;;;12.32;5.57;;;;;;;11.96;51.34;100404.50;5037988;28;20037;-58
2023/12/08 07:36:58;;;;;;;7.68;4.30;;;;;;;11.98;52.06;100397.16;5054926;28;20028;-59
2023/12/08 07:39:23;;;;;;;11.77;4.60;;;;;;;11.99;51.25;100398.84;5055018;28;20458;-58
2023/12/08 07:41:49;;;;;;;8.50;4.65;;;;;;;12.00;51.36;100397.88;5054857;28;20127;-62
2023/12/08 07:44:14;;;;;;;14.57;5.82;;;;;;;12.02;52.08;100398.56;5054836;28;20037;-59
2023/12/08 07:46:40;;;;;;;10.70;4.82;;;;;;;12.06;51.49;100391.06;5054607;28;20119;-59
2023/12/08 07:49:05;;;;;;;12.40;5.18;;;;;;;12.10;52.60;100397.81;5055003;28;20052;-59
2023/12/08 07:51:32;;;;;;;10.15;4.97;;;;;;;12.12;51.66;100402.03;5072871;28;20086;-59
2023/12/08 07:53:58;;;;;;;17.23;6.07;;;;;;;12.14;52.18;100408.06;5038168;28;20033;-59
2023/12/08 07:56:23;;;;;;;12.52;5.30;;;;;;;12.17;52.02;100413.16;5054612;28;20032;-59
2023/12/08 07:58:49;;;;;;;11.15;5.25;;;;;;;12.17;52.52;100409.66;5054658;28;20036;-59
2023/12/08 08:01:14;;;;;;;14.25;4.93;;;;;;;12.16;52.18;100416.00;5054526;28;20041;-59
2023/12/08 08:03:39;;;;;;;13.60;6.15;;;;;;;12.17;52.52;100429.25;5072883;28;20043;-59
2023/12/08 08:06:05;;;;;;;10.07;5.00;;;;;;;12.18;52.06;100428.28;5058677;28;20036;-59
2023/12/08 08:08:32;;;;;;;15.93;5.28;;;;;;;12.19;52.61;100429.13;5042123;28;20033;-59
2023/12/08 08:10:58;;;;;;;13.73;5.30;;;;;;;12.18;52.35;100433.66;5041025;28;20431;-59
2023/12/08 08:13:23;;;;;;;10.40;4.47;;;;;;;12.22;52.07;100432.38;5042149;28;20048;-59
2023/12/08 08:15:49;;;;;;;9.30;5.10;;;;;;;12.22;52.35;100426.16;5076259;28;20048;-59
2023/12/08 08:18:14;;;;;;;15.45;5.43;;;;;;;12.22;52.86;100432.38;5076713;28;20484;-59
2023/12/08 08:20:40;;;;;;;9.20;4.82;;;;;;;12.22;52.65;100428.84;5058513;28;20043;-59
2023/12/08 08:23:05;;;;;;;12.30;5.10;;;;;;;12.17;51.76;100429.25;5077666;28;20075;-59
2023/12/08 08:25:31;;;;;;;10.50;4.93;;;;;;;12.22;51.54;100427.00;5059828;28;20037;-59
2023/12/08 08:27:57;;;;;;;10.93;5.65;;;;;;;12.22;51.71;100432.38;5059410;28;20139;-59
2023/12/08 08:30:22;;;;;;;10.38;5.53;;;;;;;12.26;52.18;100431.06;5077449;28;20496;-59
2023/12/08 08:32:47;;;;;;;23.33;6.28;;;;;;;12.31;52.41;100440.53;5059627;28;20063;-59
2023/12/08 08:35:14;;;;;;;11.85;5.40;;;;;;;12.31;52.15;100445.88;5077631;28;20044;-59
2023/12/08 08:37:39;;;;;;;13.35;5.50;;;;;;;12.37;51.96;100459.53;5078475;28;20028;-59
2023/12/08 08:40:05;;;;;;;14.15;5.00;;;;;;;12.40;52.55;100455.72;5060162;28;20625;-59
2023/12/08 08:42:31;;;;;;;11.43;5.93;;;;;;;12.42;52.02;100459.13;5058450;28;20040;-59
2023/12/08 08:44:56;;;;;;;20.77;6.50;;;;;;;12.44;52.20;100451.75;5058488;28;20041;-59
2023/12/08 08:47:22;;;;;;;10.13;5.32;;;;;;;12.47;53.03;100446.06;5075991;28;20040;-59
2023/12/08 08:49:47;;;;;;;13.20;5.70;;;;;;;12.48;52.26;100447.78;5057864;28;20119;-59
2023/12/08 08:52:13;;;;;;;9.73;5.47;;;;;;;12.49;52.83;100444.06;5057993;28;20035;-60
2023/12/08 08:54:38;;;;;;;14.90;6.15;;;;;;;12.56;53.05;100450.56;5075590;28;20071;-59
2023/12/08 08:57:04;;;;;;;14.45;6.35;;;;;;;12.60;52.51;100443.84;5075548;28;20044;-59
2023/12/08 08:59:30;;;;;;;13.25;5.63;;;;;;;12.63;53.23;100454.31;5075777;28;20043;-59
2023/12/08 09:01:55;;;;;;;18.50;6.93;;;;;;;12.64;52.13;100456.84;5057204;28;20045;-59
2023/12/08 09:04:21;;;;;;;14.38;6.50;;;;;;;12.61;52.79;100454.47;5057737;28;20056;-59
2023/12/08 09:06:46;;;;;;;11.85;5.80;;;;;;;12.65;52.42;100447.78;5057741;28;20033;-59
2023/12/08 09:09:12;;;;;;;14.27;5.07;;;;;;;12.68;52.43;100460.06;5075443;28;20040;-59
2023/12/08 09:11:37;;;;;;;12.52;6.05;;;;;;;12.72;52.28;100453.41;5040504;28;20033;-59
2023/12/08 09:14:02;;;;;;;19.65;7.40;;;;;;;12.80;52.29;100458.84;5075165;28;20040;-59
2023/12/08 09:16:28;;;;;;;16.65;5.93;;;;;;;12.85;53.02;100445.81;5074962;28;20040;-59
2023/12/08 09:18:53;;;;;;;14.85;5.95;;;;;;;12.92;52.67;100451.41;5057440;28;20044;-59
2023/12/08 09:21:19;;;;;;;18.23;6.22;;;;;;;12.99;53.00;100461.41;5057064;28;20036;-59
2023/12/08 09:23:44;;;;;;;16.17;6.60;;;;;;;13.04;53.11;100456.41;5057445;28;20032;-59
2023/12/08 09:26:10;;;;;;;14.43;5.90;;;;;;;13.07;52.79;100471.38;5075039;28;20389;-59
2023/12/08 09:28:35;;;;;;;13.23;4.90;;;;;;;13.10;53.40;100468.41;5074912;28;20044;-59
2023/12/08 09:31:00;;;;;;;14.57;5.95;;;;;;;13.14;52.63;100470.66;5075196;28;20044;-59
2023/12/08 09:33:27;;;;;;;12.52;5.82;;;;;;;13.17;53.32;100473.03;5075286;28;20040;-59
2023/12/08 09:35:52;;;;;;;14.43;6.03;;;;;;;13.20;52.23;100477.25;5074029;28;20040;-59
2023/12/08 09:38:18;;;;;;;14.23;5.63;;;;;;;13.22;53.67;100480.63;5057179;28;20040;-59
2023/12/08 09:40:44;;;;;;;21.38;6.20;;;;;;;13.22;53.13;100484.19;5073735;28;20119;-59
2023/12/08 09:43:26;;;;;;;16.38;6.75;;;;;;;13.24;53.77;100489.38;5056802;28;20492;-59
2023/12/08 09:45:53;;;;;;;14.82;5.93;;;;;;;13.25;53.62;100491.09;5069335;28;20036;-59
2023/12/08 09:48:20;;;;;;;15.02;5.50;;;;;;;13.24;52.98;100481.31;5080759;28;20072;-59
2023/12/08 09:50:46;;;;;;;21.52;6.95;;;;;;;13.24;52.32;100489.38;5077091;28;20384;-59
2023/12/08 09:53:11;;;;;;;23.10;7.07;;;;;;;13.27;52.71;100494.47;5059899;28;20047;-59
2023/12/08 09:55:37;;;;;;;22.02;6.68;;;;;;;13.31;53.61;100495.84;5076725;28;20044;-59
2023/12/08 09:58:03;;;;;;;14.18;5.47;;;;;;;13.31;52.61;100488.63;5059952;28;20032;-59
2023/12/08 10:00:30;;;;;;;21.20;6.53;;;;;;;13.34;53.86;100496.38;5076455;28;20036;-59
2023/12/08 10:02:56;;;;;;;16.23;6.72;;;;;;;13.37;52.98;100501.44;5076820;28;20126;-59
2023/12/08 10:05:21;;;;;;;15.10;6.05;;;;;;;13.41;52.80;100500.13;5076489;28;20131;-59
2023/12/08 10:07:49;;;;;;;13.25;6.07;;;;;;;13.46;52.71;100509.56;5094830;28;20036;-59
2023/12/08 10:10:14;;;;;;;19.85;6.20;;;;;;;13.47;52.62;100508.59;5094521;28;20047;-59
2023/12/08 10:12:40;;;;;;;23.52;6.13;;;;;;;13.51;52.26;100504.59;5059639;28;20040;-59
2023/12/08 10:15:10;;;;;;;16.58;6.60;;;;;;;13.51;53.37;100512.66;5076534;28;20067;-59
2023/12/08 10:17:46;;;;;;;20.02;5.35;;;;;;;13.54;53.88;100506.97;5059571;28;20032;-59
2023/12/08 10:20:12;;;;;;;11.85;5.63;;;;;;;13.60;53.14;100492.88;5094335;28;20056;-57
2023/12/08 10:22:50;;;;;;;19.50;5.93;;;;;;;13.64;52.86;100494.25;5094126;28;20053;-58
2023/12/08 10:25:17;;;;;;;18.02;5.30;;;;;;;13.65;52.47;100493.28;5076067;28;20036;-57
2023/12/08 10:27:49;;;;;;;14.57;5.35;;;;;;;13.68;52.99;100504.53;5074859;28;20052;-57
2023/12/08 10:30:15;;;;;;;25.30;6.03;;;;;;;13.68;53.78;100503.72;5059332;28;20020;-57
2023/12/08 10:32:42;;;;;;;16.60;6.70;;;;;;;13.70;52.41;100502.56;5094018;28;20031;-59
2023/12/08 10:35:10;;;;;;;14.23;5.80;;;;;;;13.76;52.37;100503.78;5075886;28;20119;-59
2023/12/08 10:37:35;;;;;;;16.48;5.80;;;;;;;13.81;53.13;100504.16;5076116;28;20099;-59
2023/12/08 10:40:01;;;;;;;20.52;6.75;;;;;;;13.84;53.42;100502.00;5075794;28;20048;-59
2023/12/08 10:42:26;;;;;;;24.75;6.63;;;;;;;13.85;53.71;100509.03;5075644;28;20028;-59
2023/12/08 10:44:52;;;;;;;20.70;6.13;;;;;;;13.88;53.47;100505.19;5075759;28;20047;-59
2023/12/08 10:47:17;;;;;;;19.75;5.50;;;;;;;13.93;53.77;100510.97;5075365;28;20035;-59
2023/12/08 10:49:43;;;;;;;16.25;5.75;;;;;;;13.92;53.41;100506.56;5058871;28;20051;-59
2023/12/08 10:52:08;;;;;;;25.15;7.97;;;;;;;13.94;52.57;100509.94;5058813;28;20016;-59
2023/12/08 10:54:33;;;;;;;19.02;6.60;;;;;;;13.97;52.80;100505.09;5058977;28;20077;-59
2023/12/08 10:56:59;;;;;;;23.40;5.95;;;;;;;13.99;53.01;100502.22;5075479;28;20024;-59
2023/12/08 10:59:25;;;;;;;15.85;5.60;;;;;;;14.04;52.40;100505.31;5075404;28;20520;-59
2023/12/08 11:01:52;;;;;;;18.95;5.55;;;;;;;14.05;53.48;100496.22;5075566;28;20124;-59
2023/12/08 11:04:21;;;;;;;15.15;6.50;;;;;;;14.10;53.25;100499.25;5075598;28;20058;-60
2023/12/08 11:06:51;;;;;;;19.98;6.05;;;;;;;14.15;53.89;100502.34;5075793;28;20036;-60
2023/12/08 11:09:20;;;;;;;13.52;5.97;;;;;;;14.18;52.95;100512.78;5075829;28;20044;-59
2023/12/08 11:11:50;;;;;;;17.20;5.22;;;;;;;14.23;52.72;100515.84;5076141;28;20059;-57
2023/12/08 11:14:32;;;;;;;17.67;5.85;;;;;;;14.31;53.28;100510.50;5075454;28;20454;-59